KCSQ/CSQ METAR and TAF weather

Enter ICAO airport designator
Station Type Date Time Source
KCSQ METAR 2021/01/20 22:55 UTC NOAA

KCSQ 202255Z AUTO 25008KT 10SM CLR 06/00 A2984 RMK AO2


Station Type Date Time Source
KCSQ Decoded METAR 2021/01/20 22:55 UTC NOAA

Creston, IA, United States (KCSQ) 41-01N 094-22W
Jan 20, 2021 - 05:55 PM EST / 2021.01.20 2255 UTC
Wind: from the WSW (250 degrees) at 9 MPH (8 KT):0
Visibility: 10 mile(s):0
Sky conditions: clear
Temperature: 42 F (6 C)
Dew Point: 32 F (0 C)
Relative Humidity: 65%
Pressure (altimeter): 29.84 in. Hg (1010 hPa)
ob: KCSQ 202255Z AUTO 25008KT 10SM CLR 06/00 A2984 RMK AO2
cycle: 23

Station Type Date Time Source
KCSQ TAF UTC NOAA

Error!

Example: see airport list